createdAt,value
2022-08-31T00:01:21.161Z,1.10
2022-08-31T00:04:03.630Z,1.10
2022-08-31T00:06:34.137Z,0.90
2022-08-31T00:09:02.018Z,1.05
2022-08-31T00:11:30.811Z,1.00
2022-08-31T00:14:00.081Z,1.00
2022-08-31T00:16:29.465Z,1.30
2022-08-31T00:18:56.435Z,1.10
2022-08-31T00:21:28.799Z,0.90
2022-08-31T00:23:56.200Z,0.93
2022-08-31T00:26:23.787Z,1.00
2022-08-31T00:28:51.087Z,1.17
2022-08-31T00:31:19.600Z,0.93
2022-08-31T00:33:52.308Z,0.95
2022-08-31T00:36:21.923Z,0.98
2022-08-31T00:38:49.808Z,1.20
2022-08-31T00:41:19.854Z,0.98
2022-08-31T00:43:48.202Z,0.80
2022-08-31T00:46:20.308Z,1.10
2022-08-31T00:49:00.263Z,0.70
2022-08-31T00:51:29.144Z,0.80
2022-08-31T00:53:57.255Z,1.15
2022-08-31T00:56:24.987Z,0.88
2022-08-31T00:58:54.630Z,1.00
2022-08-31T01:01:23.872Z,0.85
2022-08-31T01:03:51.228Z,0.80
2022-08-31T01:06:18.555Z,0.90
2022-08-31T01:08:47.719Z,0.70
2022-08-31T01:11:18.501Z,0.90
2022-08-31T01:13:45.566Z,0.70
2022-08-31T01:16:21.682Z,0.80
2022-08-31T01:18:48.958Z,0.70
2022-08-31T01:21:27.020Z,0.60
2022-08-31T01:23:59.115Z,0.70
2022-08-31T01:26:29.242Z,0.70
2022-08-31T01:29:01.653Z,0.70
2022-08-31T01:31:33.012Z,0.70
2022-08-31T01:34:01.971Z,0.70
2022-08-31T01:36:29.385Z,0.60
2022-08-31T01:38:56.494Z,0.60
2022-08-31T01:41:23.373Z,0.60
2022-08-31T01:43:53.036Z,0.60
2022-08-31T01:46:19.921Z,0.70
2022-08-31T01:48:48.588Z,0.68
2022-08-31T01:51:18.029Z,0.70
2022-08-31T01:53:48.429Z,0.60
2022-08-31T01:56:24.814Z,0.60
2022-08-31T01:58:51.962Z,0.80
2022-08-31T02:01:33.902Z,0.80
2022-08-31T02:04:04.360Z,0.60
2022-08-31T02:06:32.559Z,0.73
2022-08-31T02:09:00.132Z,0.80
2022-08-31T02:11:27.003Z,0.60
2022-08-31T02:13:53.812Z,0.75
2022-08-31T02:16:20.536Z,0.80
2022-08-31T02:18:47.324Z,0.60
2022-08-31T02:21:14.228Z,0.60
2022-08-31T02:23:41.743Z,0.70
2022-08-31T02:26:09.389Z,0.68
2022-08-31T02:28:36.840Z,0.90
2022-08-31T02:31:04.382Z,0.68
2022-08-31T02:33:31.697Z,0.70
2022-08-31T02:35:58.841Z,0.80
2022-08-31T02:38:26.681Z,0.70
2022-08-31T02:40:54.032Z,0.85
2022-08-31T02:43:25.101Z,0.80
2022-08-31T02:45:53.687Z,0.70
2022-08-31T02:48:21.744Z,0.80
2022-08-31T02:50:51.507Z,0.70
2022-08-31T02:53:20.903Z,0.90
2022-08-31T02:55:48.858Z,0.60
2022-08-31T02:58:19.553Z,1.13
2022-08-31T03:00:48.956Z,0.82
2022-08-31T03:03:16.125Z,0.57
2022-08-31T03:05:43.055Z,0.80
2022-08-31T03:08:09.952Z,0.88
2022-08-31T03:10:38.098Z,0.70
2022-08-31T03:13:05.097Z,0.80
2022-08-31T03:15:32.039Z,0.70
2022-08-31T03:17:58.773Z,0.60
2022-08-31T03:20:28.341Z,0.68
2022-08-31T03:22:55.455Z,0.80
2022-08-31T03:25:23.097Z,0.60
2022-08-31T03:27:49.962Z,0.60
2022-08-31T03:30:19.421Z,0.80
2022-08-31T03:32:48.281Z,0.77
2022-08-31T03:35:15.582Z,0.70
2022-08-31T03:37:42.540Z,0.70
2022-08-31T03:40:10.400Z,0.80
2022-08-31T03:42:37.251Z,0.63
2022-08-31T03:45:05.103Z,0.70
2022-08-31T03:47:31.779Z,0.85
2022-08-31T03:49:58.779Z,0.50
2022-08-31T03:52:25.740Z,0.70
2022-08-31T03:54:53.205Z,0.75
2022-08-31T03:57:19.971Z,0.90
2022-08-31T03:59:46.868Z,0.90
2022-08-31T04:02:13.786Z,0.73
2022-08-31T04:04:40.508Z,0.70
2022-08-31T04:07:07.218Z,0.60
2022-08-31T04:09:34.045Z,0.82
2022-08-31T04:12:00.883Z,0.80
2022-08-31T04:14:27.806Z,0.65
2022-08-31T04:16:54.477Z,0.63
2022-08-31T04:19:21.487Z,0.90
2022-08-31T04:21:49.707Z,0.80
2022-08-31T04:24:16.488Z,0.70
2022-08-31T04:26:43.457Z,0.70
2022-08-31T04:29:13.421Z,0.70
2022-08-31T04:31:40.615Z,0.60
2022-08-31T04:34:07.272Z,0.70
2022-08-31T04:36:34.053Z,0.80
2022-08-31T04:39:03.378Z,0.60
2022-08-31T04:41:32.492Z,0.70
2022-08-31T04:44:00.658Z,0.73
2022-08-31T04:46:28.656Z,0.70
2022-08-31T04:48:56.851Z,0.70
2022-08-31T04:51:27.439Z,0.98
2022-08-31T04:53:55.238Z,0.60
2022-08-31T04:56:25.055Z,0.70
2022-08-31T04:58:57.955Z,0.60
2022-08-31T05:01:26.941Z,0.60
2022-08-31T05:03:56.426Z,0.80
2022-08-31T05:06:27.428Z,0.80
2022-08-31T05:08:56.423Z,0.57
2022-08-31T05:11:25.086Z,0.60
2022-08-31T05:13:53.145Z,0.70
2022-08-31T05:16:20.791Z,0.70
2022-08-31T05:18:49.142Z,0.65
2022-08-31T05:21:28.205Z,0.70
2022-08-31T05:24:03.808Z,0.90
2022-08-31T05:26:33.989Z,0.70
2022-08-31T05:29:02.765Z,0.88
2022-08-31T05:31:30.888Z,0.70
2022-08-31T05:33:58.555Z,0.70
2022-08-31T05:36:26.098Z,0.77
2022-08-31T05:39:00.806Z,1.05
2022-08-31T05:41:29.678Z,0.90
2022-08-31T05:43:56.571Z,0.65
2022-08-31T05:46:23.692Z,0.90
2022-08-31T05:48:50.508Z,0.88
2022-08-31T05:51:18.950Z,0.90
2022-08-31T05:53:46.350Z,0.80
2022-08-31T05:56:20.242Z,0.95
2022-08-31T05:58:48.546Z,0.70
2022-08-31T06:01:33.304Z,0.70
2022-08-31T06:04:01.681Z,0.90
2022-08-31T06:06:29.306Z,0.70
2022-08-31T06:08:56.929Z,0.90
2022-08-31T06:11:29.262Z,1.00
2022-08-31T06:13:58.619Z,0.95
2022-08-31T06:16:26.521Z,0.88
2022-08-31T06:18:55.763Z,0.90
2022-08-31T06:21:26.750Z,0.90
2022-08-31T06:23:59.519Z,1.75
2022-08-31T06:26:29.158Z,1.00
2022-08-31T06:28:58.951Z,1.00
2022-08-31T06:31:29.667Z,1.20
2022-08-31T06:33:57.726Z,0.88
2022-08-31T06:36:28.155Z,1.27
2022-08-31T06:38:56.938Z,1.00
2022-08-31T06:41:27.243Z,1.00
2022-08-31T06:43:54.634Z,1.00
2022-08-31T06:46:23.387Z,0.95
2022-08-31T06:48:53.682Z,1.10
2022-08-31T06:51:20.369Z,1.17
2022-08-31T06:53:47.274Z,1.20
2022-08-31T06:56:21.327Z,0.85
2022-08-31T06:58:53.715Z,1.13
2022-08-31T07:01:35.748Z,1.17
2022-08-31T07:04:05.910Z,1.00
2022-08-31T07:06:38.091Z,1.25
2022-08-31T07:09:07.376Z,1.15
2022-08-31T07:11:44.336Z,1.00
2022-08-31T07:14:14.730Z,1.08
2022-08-31T07:16:46.217Z,1.50
2022-08-31T07:19:14.512Z,1.20
2022-08-31T07:21:42.871Z,1.27
2022-08-31T07:24:13.336Z,0.90
2022-08-31T07:26:46.207Z,1.40
2022-08-31T07:29:15.123Z,1.10
2022-08-31T07:31:44.839Z,1.30
2022-08-31T07:34:16.467Z,1.27
2022-08-31T07:37:02.471Z,1.00
2022-08-31T07:39:48.770Z,1.25
2022-08-31T07:42:23.855Z,0.98
2022-08-31T07:44:53.396Z,1.20
2022-08-31T07:47:22.788Z,1.10
2022-08-31T07:49:52.837Z,1.02
2022-08-31T07:52:23.773Z,1.08
2022-08-31T07:54:54.274Z,1.13
2022-08-31T07:57:25.902Z,1.23
2022-08-31T08:00:04.568Z,1.40
2022-08-31T08:02:32.608Z,1.48
2022-08-31T08:05:01.056Z,1.50
2022-08-31T08:07:28.014Z,1.40
2022-08-31T08:09:56.108Z,1.67
2022-08-31T08:12:25.282Z,1.50
2022-08-31T08:14:54.945Z,1.40
2022-08-31T08:17:21.651Z,1.40
2022-08-31T08:19:48.555Z,1.50
2022-08-31T08:22:30.638Z,1.30
2022-08-31T08:27:33.829Z,1.50
2022-08-31T08:30:00.558Z,1.20
2022-08-31T08:32:27.753Z,1.30
2022-08-31T08:34:55.215Z,1.55
2022-08-31T08:37:41.141Z,1.50
2022-08-31T08:40:26.907Z,1.27
2022-08-31T08:42:54.106Z,1.77
2022-08-31T08:45:20.934Z,1.38
2022-08-31T08:47:50.077Z,1.50
2022-08-31T08:50:19.163Z,1.45
2022-08-31T08:52:47.915Z,1.38
2022-08-31T08:55:19.388Z,2.30
2022-08-31T08:57:47.278Z,1.60
2022-08-31T09:00:18.607Z,1.10
2022-08-31T09:03:07.896Z,1.30
2022-08-31T09:05:51.835Z,1.40
2022-08-31T09:09:09.074Z,1.50
2022-08-31T09:15:03.896Z,1.70
2022-08-31T09:17:45.531Z,1.40
2022-08-31T09:20:13.423Z,1.50
2022-08-31T09:22:50.752Z,1.23
2022-08-31T09:25:26.668Z,1.38
2022-08-31T09:27:58.884Z,1.40
2022-08-31T09:30:43.731Z,1.45
2022-08-31T09:33:26.259Z,1.40
2022-08-31T09:35:58.522Z,1.40
2022-08-31T09:38:32.824Z,1.30
2022-08-31T09:40:59.922Z,1.40
2022-08-31T09:43:35.187Z,1.23
2022-08-31T09:46:14.584Z,1.25
2022-08-31T09:48:58.487Z,1.60
2022-08-31T09:51:32.377Z,1.38
2022-08-31T09:54:26.541Z,1.30
2022-08-31T09:56:58.308Z,1.20
2022-08-31T09:59:44.096Z,1.40
2022-08-31T10:02:13.879Z,1.10
2022-08-31T10:05:01.044Z,0.90
2022-08-31T10:07:44.064Z,1.30
2022-08-31T10:10:28.450Z,1.33
2022-08-31T10:13:14.445Z,1.10
2022-08-31T10:15:54.705Z,1.30
2022-08-31T10:18:52.373Z,1.27
2022-08-31T10:21:30.212Z,1.20
2022-08-31T10:24:28.475Z,1.30
2022-08-31T10:27:23.842Z,1.02
2022-08-31T10:29:53.513Z,1.00
2022-08-31T10:32:30.016Z,1.05
2022-08-31T10:35:12.135Z,1.20
2022-08-31T10:37:50.738Z,0.85
2022-08-31T10:40:35.506Z,1.08
2022-08-31T10:43:14.338Z,1.00
2022-08-31T10:45:44.272Z,0.95
2022-08-31T10:48:13.148Z,0.90
2022-08-31T10:51:13.133Z,1.05
2022-08-31T10:54:28.792Z,0.80
2022-08-31T10:57:08.701Z,1.00
2022-08-31T10:59:55.402Z,0.90
2022-08-31T11:02:37.933Z,1.00
2022-08-31T11:05:13.692Z,1.00
2022-08-31T11:07:45.722Z,1.10
2022-08-31T11:10:22.285Z,0.65
2022-08-31T11:13:02.603Z,1.00
2022-08-31T11:15:59.537Z,1.00
2022-08-31T11:18:54.933Z,0.90
2022-08-31T11:21:35.537Z,0.80
2022-08-31T11:24:14.275Z,0.90
2022-08-31T11:26:54.098Z,0.80
2022-08-31T11:29:34.385Z,0.80
2022-08-31T11:32:17.326Z,0.90
2022-08-31T11:34:54.142Z,0.90
2022-08-31T11:37:53.227Z,1.00
2022-08-31T11:40:41.931Z,0.77
2022-08-31T11:43:14.628Z,1.00
2022-08-31T11:45:42.881Z,0.77
2022-08-31T11:48:51.403Z,1.00
2022-08-31T11:51:41.227Z,0.90
2022-08-31T11:54:26.985Z,0.80
2022-08-31T11:56:57.868Z,0.85
2022-08-31T11:59:35.426Z,0.90
2022-08-31T12:02:22.898Z,1.00
2022-08-31T12:04:52.322Z,0.90
2022-08-31T12:07:34.679Z,0.93
2022-08-31T12:10:32.016Z,0.80
2022-08-31T12:13:18.922Z,0.90
2022-08-31T12:16:07.283Z,1.23
2022-08-31T12:18:48.779Z,0.90
2022-08-31T12:21:43.214Z,0.90
2022-08-31T12:24:28.822Z,0.80
2022-08-31T12:27:18.237Z,1.00
2022-08-31T12:29:45.671Z,0.93
2022-08-31T12:32:42.099Z,1.05
2022-08-31T12:35:26.222Z,0.77
2022-08-31T12:38:06.013Z,1.00
2022-08-31T12:40:36.048Z,1.80
2022-08-31T12:43:15.255Z,0.88
2022-08-31T12:45:53.881Z,0.85
2022-08-31T12:48:38.946Z,0.90
2022-08-31T12:51:40.513Z,0.70
2022-08-31T12:54:38.030Z,0.80
2022-08-31T12:57:07.639Z,1.10
2022-08-31T13:00:01.081Z,1.10
2022-08-31T13:02:33.040Z,0.90
2022-08-31T13:05:01.659Z,0.90
2022-08-31T13:07:34.947Z,0.80
2022-08-31T13:10:12.195Z,0.88
2022-08-31T13:12:39.590Z,0.80
2022-08-31T13:15:21.029Z,0.70
2022-08-31T13:17:47.839Z,1.00
2022-08-31T13:20:18.632Z,0.90
2022-08-31T13:22:48.939Z,1.00
2022-08-31T13:25:35.998Z,0.90
2022-08-31T13:28:12.611Z,0.93
2022-08-31T13:30:54.917Z,0.80
2022-08-31T13:33:25.081Z,0.88
2022-08-31T13:36:03.974Z,1.10
2022-08-31T13:38:42.616Z,0.80
2022-08-31T13:41:19.008Z,1.10
2022-08-31T13:43:59.185Z,1.00
2022-08-31T13:46:42.353Z,0.95
2022-08-31T13:49:35.655Z,0.90
2022-08-31T13:52:17.760Z,0.45
2022-08-31T13:54:44.601Z,0.70
2022-08-31T13:57:28.462Z,0.63
2022-08-31T14:00:35.792Z,0.75
2022-08-31T14:03:32.284Z,0.70
2022-08-31T14:06:24.061Z,0.70
2022-08-31T14:09:08.067Z,0.50
2022-08-31T14:11:35.739Z,0.63
2022-08-31T14:14:09.982Z,0.70
2022-08-31T14:19:33.007Z,0.80
2022-08-31T14:22:30.559Z,0.70
2022-08-31T14:24:57.484Z,0.50
2022-08-31T14:27:24.673Z,0.80
2022-08-31T14:29:52.415Z,0.80
2022-08-31T14:32:22.304Z,0.90
2022-08-31T14:34:49.384Z,0.68
2022-08-31T14:37:34.553Z,0.50
2022-08-31T14:40:07.715Z,0.63
2022-08-31T14:42:38.599Z,1.02
2022-08-31T14:45:09.941Z,0.60
2022-08-31T14:47:45.654Z,0.63
2022-08-31T14:50:18.764Z,0.40
2022-08-31T14:53:00.087Z,0.68
2022-08-31T14:55:29.923Z,0.50
2022-08-31T14:58:02.230Z,0.70
2022-08-31T15:00:31.995Z,0.60
2022-08-31T15:03:01.282Z,0.52
2022-08-31T15:05:28.348Z,0.60
2022-08-31T15:07:56.042Z,0.60
2022-08-31T15:10:25.804Z,0.60
2022-08-31T15:12:53.832Z,0.70
2022-08-31T15:15:21.448Z,0.50
2022-08-31T15:17:51.759Z,0.60
2022-08-31T15:20:21.619Z,0.57
2022-08-31T15:22:49.545Z,0.70
2022-08-31T15:25:18.572Z,0.52
2022-08-31T15:27:46.737Z,0.60
2022-08-31T15:30:17.948Z,0.50
2022-08-31T15:32:48.259Z,0.50
2022-08-31T15:35:23.550Z,0.50
2022-08-31T15:37:55.329Z,0.60
2022-08-31T15:40:23.354Z,0.95
2022-08-31T15:42:51.034Z,0.77
2022-08-31T15:45:18.066Z,0.80
2022-08-31T15:48:03.781Z,0.68
2022-08-31T15:50:32.509Z,0.60
2022-08-31T15:53:08.221Z,0.68
2022-08-31T15:55:36.943Z,0.70
2022-08-31T15:58:04.258Z,0.60
2022-08-31T16:00:32.721Z,0.52
2022-08-31T16:03:02.230Z,0.60
2022-08-31T16:05:39.000Z,0.80
2022-08-31T16:08:10.458Z,0.60
2022-08-31T16:10:41.401Z,0.50
2022-08-31T16:13:09.417Z,0.40
2022-08-31T16:15:37.866Z,0.60
2022-08-31T16:18:05.875Z,0.50
2022-08-31T16:20:34.600Z,0.70
2022-08-31T16:23:01.669Z,0.80
2022-08-31T16:25:37.405Z,0.80
2022-08-31T16:28:16.340Z,0.60
2022-08-31T16:30:44.497Z,0.52
2022-08-31T16:33:12.134Z,0.90
2022-08-31T16:35:39.642Z,0.85
2022-08-31T16:38:07.245Z,0.60
2022-08-31T16:40:35.549Z,0.60
2022-08-31T16:43:03.415Z,0.70
2022-08-31T16:45:30.367Z,0.70
2022-08-31T16:48:17.317Z,0.70
2022-08-31T16:50:48.812Z,0.70
2022-08-31T16:53:18.423Z,1.13
2022-08-31T16:55:47.908Z,0.50
2022-08-31T16:58:29.537Z,0.60
2022-08-31T17:01:13.393Z,0.50
2022-08-31T17:03:49.771Z,0.60
2022-08-31T17:06:17.503Z,0.60
2022-08-31T17:08:45.619Z,0.60
2022-08-31T17:11:14.871Z,0.90
2022-08-31T17:13:47.496Z,0.60
2022-08-31T17:16:21.345Z,0.50
2022-08-31T17:18:51.689Z,0.60
2022-08-31T17:21:21.818Z,0.77
2022-08-31T17:23:51.121Z,0.65
2022-08-31T17:26:19.910Z,0.70
2022-08-31T17:28:53.062Z,0.80
2022-08-31T17:31:20.594Z,0.70
2022-08-31T17:33:47.509Z,0.73
2022-08-31T17:36:20.083Z,0.68
2022-08-31T17:38:49.271Z,0.60
2022-08-31T17:41:16.728Z,0.68
2022-08-31T17:43:43.918Z,0.70
2022-08-31T17:46:13.109Z,0.80
2022-08-31T17:48:46.053Z,0.70
2022-08-31T17:51:39.306Z,0.93
2022-08-31T17:54:11.434Z,0.70
2022-08-31T17:56:47.553Z,0.73
2022-08-31T17:59:21.347Z,0.60
2022-08-31T18:01:50.866Z,0.70
2022-08-31T18:04:18.870Z,0.60
2022-08-31T18:06:46.556Z,0.55
2022-08-31T18:09:15.950Z,0.60
2022-08-31T18:11:46.634Z,0.70
2022-08-31T18:14:20.205Z,0.50
2022-08-31T18:16:50.059Z,0.60
2022-08-31T18:19:27.353Z,0.60
2022-08-31T18:21:56.049Z,0.50
2022-08-31T18:24:22.989Z,0.60
2022-08-31T18:26:51.215Z,0.77
2022-08-31T18:29:22.641Z,0.70
2022-08-31T18:31:54.275Z,1.00
2022-08-31T18:34:24.481Z,0.68
2022-08-31T18:36:53.675Z,0.80
2022-08-31T18:39:41.061Z,0.70
2022-08-31T18:42:32.000Z,0.80
2022-08-31T18:45:19.538Z,0.63
2022-08-31T18:50:49.415Z,0.70
2022-08-31T18:53:28.458Z,0.60
2022-08-31T18:56:17.142Z,1.80
2022-08-31T18:58:44.158Z,0.90
2022-08-31T19:01:15.663Z,0.75
2022-08-31T19:03:45.978Z,0.80
2022-08-31T19:06:22.042Z,0.75
2022-08-31T19:09:01.710Z,0.80
2022-08-31T19:11:42.251Z,0.70
2022-08-31T19:14:09.916Z,0.80
2022-08-31T19:16:46.919Z,0.60
2022-08-31T19:19:20.750Z,0.68
2022-08-31T19:21:48.969Z,0.95
2022-08-31T19:24:18.392Z,0.90
2022-08-31T19:26:48.838Z,0.80
2022-08-31T19:29:22.810Z,0.85
2022-08-31T19:31:50.749Z,0.73
2022-08-31T19:34:20.590Z,0.80
2022-08-31T19:36:53.871Z,0.90
2022-08-31T19:39:24.919Z,1.00
2022-08-31T19:41:56.136Z,1.48
2022-08-31T19:44:25.672Z,0.90
2022-08-31T19:46:55.304Z,1.05
2022-08-31T19:49:22.881Z,0.90
2022-08-31T19:51:56.876Z,1.13
2022-08-31T19:54:26.155Z,1.40
2022-08-31T19:56:54.073Z,1.10
2022-08-31T19:59:21.794Z,1.08
2022-08-31T20:01:53.293Z,0.90
2022-08-31T20:04:24.021Z,0.88
2022-08-31T20:06:52.498Z,1.10
2022-08-31T20:09:22.416Z,0.90
2022-08-31T20:11:50.242Z,1.23
2022-08-31T20:14:19.530Z,1.08
2022-08-31T20:16:46.605Z,0.93
2022-08-31T20:19:18.975Z,1.00
2022-08-31T20:21:52.996Z,1.13
2022-08-31T20:24:24.715Z,0.90
2022-08-31T20:26:55.613Z,1.10
2022-08-31T20:29:24.025Z,2.53
2022-08-31T20:31:55.493Z,0.95
2022-08-31T20:34:28.070Z,1.08
2022-08-31T20:37:00.907Z,1.17
2022-08-31T20:39:31.951Z,0.95
2022-08-31T20:42:00.673Z,1.08
2022-08-31T20:44:29.583Z,1.00
2022-08-31T20:47:20.294Z,1.00
2022-08-31T20:49:55.337Z,0.80
2022-08-31T20:52:26.406Z,0.80
2022-08-31T20:55:01.402Z,1.08
2022-08-31T20:57:30.857Z,0.90
2022-08-31T20:59:58.011Z,1.50
2022-08-31T21:02:24.735Z,1.08
2022-08-31T21:04:51.476Z,0.90
2022-08-31T21:07:19.471Z,1.10
2022-08-31T21:09:46.957Z,0.90
2022-08-31T21:12:18.030Z,1.15
2022-08-31T21:14:45.778Z,1.10
2022-08-31T21:17:15.644Z,1.33
2022-08-31T21:19:43.826Z,1.00
2022-08-31T21:22:14.644Z,1.15
2022-08-31T21:24:43.442Z,1.20
2022-08-31T21:27:17.031Z,1.23
2022-08-31T21:29:47.067Z,0.90
2022-08-31T21:32:14.691Z,1.17
2022-08-31T21:34:42.046Z,1.50
2022-08-31T21:37:09.375Z,1.10
2022-08-31T21:39:37.826Z,1.25
2022-08-31T21:42:05.262Z,1.10
2022-08-31T21:44:34.108Z,1.10
2022-08-31T21:47:01.015Z,1.10
2022-08-31T21:49:28.114Z,0.90
2022-08-31T21:51:58.110Z,1.10
2022-08-31T21:54:27.784Z,0.88
2022-08-31T21:57:00.219Z,1.10
2022-08-31T21:59:32.726Z,1.10
2022-08-31T22:02:04.244Z,1.00
2022-08-31T22:04:34.306Z,1.10
2022-08-31T22:07:01.987Z,1.10
2022-08-31T22:09:29.617Z,1.00
2022-08-31T22:11:58.518Z,1.00
2022-08-31T22:14:31.991Z,1.00
2022-08-31T22:17:05.587Z,0.90
2022-08-31T22:19:36.719Z,1.15
2022-08-31T22:22:07.235Z,0.93
2022-08-31T22:24:39.519Z,1.45
2022-08-31T22:27:09.959Z,1.30
2022-08-31T22:29:40.006Z,1.30
2022-08-31T22:32:12.166Z,1.20
2022-08-31T22:34:41.376Z,0.98
2022-08-31T22:37:09.202Z,1.15
2022-08-31T22:39:36.722Z,1.10
2022-08-31T22:42:05.774Z,1.00
2022-08-31T22:44:35.495Z,1.30
2022-08-31T22:47:04.699Z,1.13
2022-08-31T22:49:31.543Z,1.45
2022-08-31T22:51:58.358Z,1.20
2022-08-31T22:54:25.556Z,0.98
2022-08-31T22:56:53.219Z,1.30
2022-08-31T22:59:27.354Z,1.00
2022-08-31T23:02:02.131Z,1.20
2022-08-31T23:04:33.450Z,1.10
2022-08-31T23:07:03.748Z,1.40
2022-08-31T23:09:33.655Z,1.23
2022-08-31T23:12:03.970Z,1.23
2022-08-31T23:14:32.698Z,1.10
2022-08-31T23:17:01.581Z,1.20
2022-08-31T23:19:36.980Z,1.10
2022-08-31T23:24:44.909Z,1.27
2022-08-31T23:27:14.191Z,1.23
2022-08-31T23:29:46.024Z,1.20
2022-08-31T23:32:14.078Z,1.20
2022-08-31T23:34:41.828Z,1.20
2022-08-31T23:37:10.505Z,1.10
2022-08-31T23:39:40.647Z,1.27
2022-08-31T23:42:10.404Z,1.20
2022-08-31T23:44:42.286Z,1.10
2022-08-31T23:47:13.805Z,1.20
2022-08-31T23:49:42.674Z,1.10
2022-08-31T23:52:12.166Z,1.30
2022-08-31T23:54:40.478Z,1.55
2022-08-31T23:57:08.577Z,1.10
